Time;durP1;ratioP1;P1;durP2;ratioP2;P2;SDS_P1;SDS_P2;PMS_P1;PMS_P2;Temp;Humidity;BMP_temperature;BMP_pressure;BME280_temperature;BME280_humidity;BME280_pressure;Samples;Min_cycle;Max_cycle;Signal;HPM_P1;HPM_P2
2021/05/23 00:00:25;;;;;;;11.07;6.53;;;16.70;49.20;;;;;;5024260;28;20037;-69
2021/05/23 00:02:52;;;;;;;10.23;5.65;;;16.70;49.20;;;;;;5034887;28;20102;-69
2021/05/23 00:05:21;;;;;;;7.85;4.40;;;16.70;49.60;;;;;;5032985;28;20026;-69
2021/05/23 00:07:54;;;;;;;5.25;3.30;;;16.70;50.00;;;;;;5034524;28;20030;-69
2021/05/23 00:10:20;;;;;;;5.13;2.95;;;16.70;49.80;;;;;;5029592;28;20033;-69
2021/05/23 00:12:47;;;;;;;4.50;2.50;;;16.70;49.70;;;;;;5014843;28;20534;-69
2021/05/23 00:15:16;;;;;;;3.28;1.88;;;16.70;49.70;;;;;;5031004;28;20388;-69
2021/05/23 00:17:42;;;;;;;5.03;2.40;;;16.80;49.80;;;;;;5014743;28;20026;-69
2021/05/23 00:20:09;;;;;;;3.78;2.40;;;16.70;49.70;;;;;;5018209;28;20025;-69
2021/05/23 00:22:35;;;;;;;7.65;2.75;;;16.70;49.70;;;;;;5032904;28;20087;-69
2021/05/23 00:25:00;;;;;;;5.18;2.72;;;16.70;49.70;;;;;;5034431;28;20029;-69
2021/05/23 00:27:26;;;;;;;3.13;1.73;;;16.70;49.60;;;;;;5034214;28;20499;-69
2021/05/23 00:29:52;;;;;;;2.83;1.60;;;16.70;49.60;;;;;;5032784;28;20021;-69
2021/05/23 00:32:19;;;;;;;3.45;2.40;;;16.60;49.60;;;;;;5034340;28;20375;-69
2021/05/23 00:34:45;;;;;;;3.72;2.00;;;16.60;49.70;;;;;;5032525;28;20475;-69
2021/05/23 00:37:10;;;;;;;5.50;3.47;;;16.60;49.80;;;;;;5034231;28;20029;-69
2021/05/23 00:39:36;;;;;;;6.28;3.10;;;16.60;49.90;;;;;;5033923;28;20057;-69
2021/05/23 00:42:02;;;;;;;6.53;3.03;;;16.50;49.80;;;;;;5015314;28;20107;-69
2021/05/23 00:44:28;;;;;;;5.18;3.95;;;16.50;49.80;;;;;;5021673;28;20021;-69
2021/05/23 00:46:54;;;;;;;6.00;3.63;;;16.50;49.90;;;;;;5033987;28;20115;-69
2021/05/23 00:49:20;;;;;;;3.33;2.50;;;16.50;50.10;;;;;;5033782;28;20052;-69
2021/05/23 00:51:45;;;;;;;3.97;2.35;;;16.40;50.40;;;;;;5033733;28;20530;-69
2021/05/23 00:54:11;;;;;;;3.55;2.58;;;16.40;50.50;;;;;;5032108;28;20526;-69
2021/05/23 00:56:37;;;;;;;5.45;3.00;;;16.40;50.30;;;;;;5028851;28;20036;-69
2021/05/23 00:59:03;;;;;;;7.05;4.60;;;16.40;50.70;;;;;;5015991;28;20029;-69
2021/05/23 01:01:44;;;;;;;8.23;3.40;;;16.40;50.80;;;;;;5030857;28;20395;-69
2021/05/23 01:04:11;;;;;;;4.00;2.80;;;16.40;51.00;;;;;;5032172;28;20028;-69
2021/05/23 01:06:37;;;;;;;7.18;5.22;;;16.40;51.10;;;;;;5033668;28;20022;-69
2021/05/23 01:09:07;;;;;;;18.52;12.45;;;16.40;51.00;;;;;;5033673;28;20017;-69
2021/05/23 01:11:32;;;;;;;21.92;14.73;;;16.40;51.00;;;;;;5013918;28;20430;-69
2021/05/23 01:13:58;;;;;;;35.53;22.27;;;16.40;50.90;;;;;;5014064;28;20022;-69
2021/05/23 01:16:30;;;;;;;34.05;24.42;;;16.50;50.90;;;;;;5013757;28;20025;-69
2021/05/23 01:19:15;;;;;;;30.90;20.77;;;16.50;50.90;;;;;;5014366;28;20045;-69
2021/05/23 01:21:48;;;;;;;14.35;9.18;;;16.50;51.20;;;;;;5033337;28;20108;-69
2021/05/23 01:24:31;;;;;;;13.93;9.32;;;16.50;51.10;;;;;;5031773;28;20018;-69
2021/05/23 01:26:57;;;;;;;15.98;9.00;;;16.50;51.20;;;;;;5033412;28;20017;-69
2021/05/23 01:29:23;;;;;;;14.43;8.57;;;16.50;51.00;;;;;;5033113;28;20108;-69
2021/05/23 01:31:53;;;;;;;11.40;7.55;;;16.60;51.10;;;;;;5031763;28;20125;-69
2021/05/23 01:34:22;;;;;;;7.43;5.05;;;16.60;51.30;;;;;;5033105;28;20075;-69
2021/05/23 01:36:51;;;;;;;8.88;5.55;;;16.60;51.20;;;;;;5033195;28;20049;-69
2021/05/23 01:39:18;;;;;;;9.60;4.93;;;16.60;51.20;;;;;;5032081;28;20037;-69
2021/05/23 01:41:44;;;;;;;6.65;4.00;;;16.60;51.30;;;;;;5015099;28;20088;-69
2021/05/23 01:44:11;;;;;;;5.50;3.50;;;16.60;51.30;;;;;;5029975;28;20415;-69
2021/05/23 01:46:38;;;;;;;4.85;3.20;;;16.70;51.40;;;;;;5038648;28;20444;-69
2021/05/23 01:49:05;;;;;;;2.70;1.50;;;16.60;52.20;;;;;;5024866;28;20056;-69
2021/05/23 01:51:31;;;;;;;2.00;1.30;;;16.60;51.90;;;;;;5051237;28;20041;-69
2021/05/23 01:53:58;;;;;;;4.78;1.80;;;16.60;51.60;;;;;;5050291;28;20348;-69
2021/05/23 01:56:24;;;;;;;5.90;1.40;;;16.70;51.60;;;;;;5017948;28;20436;-68
2021/05/23 01:58:50;;;;;;;1.60;1.15;;;16.60;51.40;;;;;;5013267;28;20121;-69
2021/05/23 02:01:16;;;;;;;3.85;1.27;;;16.60;51.30;;;;;;5023396;28;20084;-69
2021/05/23 02:03:42;;;;;;;3.20;1.35;;;16.60;51.00;;;;;;5013050;28;20026;-69
2021/05/23 02:06:08;;;;;;;4.55;1.35;;;16.70;51.10;;;;;;5028910;28;20022;-69
2021/05/23 02:08:34;;;;;;;7.93;1.75;;;16.70;51.20;;;;;;5023498;28;20022;-69
2021/05/23 02:11:05;;;;;;;10.45;7.10;;;16.70;51.10;;;;;;5045975;28;20025;-69
2021/05/23 02:13:31;;;;;;;4.63;2.50;;;16.70;51.20;;;;;;5013003;28;20033;-69
2021/05/23 02:15:57;;;;;;;3.60;2.13;;;16.80;51.30;;;;;;5027641;28;20379;-69
2021/05/23 02:18:23;;;;;;;3.03;1.90;;;16.80;51.10;;;;;;5030848;28;20037;-69
2021/05/23 02:20:49;;;;;;;4.20;2.53;;;16.80;51.00;;;;;;5032184;28;20165;-69
2021/05/23 02:23:20;;;;;;;4.25;2.72;;;16.80;51.10;;;;;;5047055;28;20021;-69
2021/05/23 02:25:46;;;;;;;3.38;2.40;;;16.80;51.10;;;;;;5035943;28;20075;-69
2021/05/23 02:28:14;;;;;;;3.05;2.08;;;16.80;50.90;;;;;;5032134;28;20036;-69
2021/05/23 02:30:52;;;;;;;5.18;3.60;;;16.80;50.90;;;;;;5033338;28;20028;-69
2021/05/23 02:33:20;;;;;;;8.48;3.40;;;16.80;51.30;;;;;;5036198;28;20030;-69
2021/05/23 02:35:55;;;;;;;6.45;3.88;;;16.80;50.90;;;;;;5035732;28;20025;-69
2021/05/23 02:38:23;;;;;;;7.40;4.18;;;16.80;51.20;;;;;;5036183;28;20029;-69
2021/05/23 02:40:50;;;;;;;24.70;15.95;;;16.80;51.10;;;;;;5034572;28;20021;-69
2021/05/23 02:43:17;;;;;;;13.52;8.35;;;16.80;51.00;;;;;;5036160;28;20025;-69
2021/05/23 02:45:43;;;;;;;4.30;3.05;;;16.80;51.10;;;;;;5035891;28;20022;-69
2021/05/23 02:48:09;;;;;;;2.60;1.92;;;16.90;51.20;;;;;;5035980;28;20040;-69
2021/05/23 02:50:37;;;;;;;5.00;2.33;;;16.90;51.20;;;;;;5031139;28;20030;-69
2021/05/23 02:53:07;;;;;;;5.03;3.25;;;16.90;51.10;;;;;;5023176;28;20506;-69
2021/05/23 02:55:35;;;;;;;7.53;4.65;;;16.90;51.20;;;;;;5034448;28;20091;-69
2021/05/23 02:58:00;;;;;;;9.98;3.08;;;16.90;51.70;;;;;;5050775;28;20513;-69
2021/05/23 03:00:27;;;;;;;2.40;1.45;;;16.90;51.10;;;;;;5039621;28;20061;-69
2021/05/23 03:02:53;;;;;;;3.15;1.42;;;16.90;51.20;;;;;;5035825;28;20053;-69
2021/05/23 03:05:21;;;;;;;2.05;1.15;;;16.80;51.20;;;;;;5020801;28;20029;-69
2021/05/23 03:07:51;;;;;;;9.00;5.43;;;16.80;51.20;;;;;;5031144;28;20383;-69
2021/05/23 03:10:25;;;;;;;8.70;4.38;;;16.80;51.50;;;;;;5042368;28;20034;-69
2021/05/23 03:12:54;;;;;;;3.90;2.00;;;16.80;51.60;;;;;;5022040;28;20114;-69
2021/05/23 03:15:24;;;;;;;2.72;1.42;;;16.80;51.40;;;;;;5036148;28;20037;-69
2021/05/23 03:17:53;;;;;;;2.47;0.93;;;16.80;51.60;;;;;;5055534;28;20029;-69
2021/05/23 03:20:23;;;;;;;1.67;1.00;;;16.80;51.50;;;;;;5046108;28;20387;-69
2021/05/23 03:22:52;;;;;;;3.15;1.60;;;16.80;51.50;;;;;;5015708;28;20080;-69
2021/05/23 03:25:21;;;;;;;3.33;2.08;;;16.80;51.60;;;;;;5037485;28;20048;-69
2021/05/23 03:27:49;;;;;;;5.13;3.60;;;16.90;51.70;;;;;;5054046;28;20012;-69
2021/05/23 03:30:21;;;;;;;5.00;2.60;;;16.80;51.60;;;;;;5035055;28;20379;-69
2021/05/23 03:32:47;;;;;;;10.63;2.08;;;16.90;52.30;;;;;;5020764;28;20444;-69
2021/05/23 03:35:14;;;;;;;4.57;1.60;;;16.90;52.30;;;;;;5030407;28;20128;-67
2021/05/23 03:37:40;;;;;;;23.73;14.13;;;16.90;52.30;;;;;;5054905;28;20036;-69
2021/05/23 03:40:09;;;;;;;24.08;13.07;;;16.90;52.60;;;;;;5054461;28;20033;-69
2021/05/23 03:42:34;;;;;;;10.57;7.43;;;16.90;52.70;;;;;;5040566;28;20030;-69
2021/05/23 03:45:01;;;;;;;5.75;4.05;;;16.90;52.60;;;;;;5015407;28;20030;-67
2021/05/23 03:47:26;;;;;;;3.88;2.67;;;16.90;52.80;;;;;;5015692;28;20018;-66
2021/05/23 03:49:52;;;;;;;5.22;2.30;;;16.90;52.60;;;;;;5015317;28;20024;-66
2021/05/23 03:52:20;;;;;;;3.30;1.20;;;17.00;53.00;;;;;;5014733;28;20065;-69
2021/05/23 03:54:47;;;;;;;4.25;2.72;;;16.90;53.00;;;;;;5015175;28;20014;-69
2021/05/23 03:57:13;;;;;;;2.50;1.70;;;17.00;53.00;;;;;;5034658;28;20033;-69
2021/05/23 03:59:39;;;;;;;3.17;1.70;;;17.00;53.10;;;;;;5034900;28;20024;-69
2021/05/23 04:02:05;;;;;;;3.00;1.30;;;17.00;53.00;;;;;;5032486;28;20100;-69
2021/05/23 04:04:53;;;;;;;2.15;1.00;;;17.00;53.10;;;;;;5015283;28;20029;-69
2021/05/23 04:07:20;;;;;;;4.45;2.55;;;17.00;53.40;;;;;;5014981;28;20480;-69
2021/05/23 04:09:50;;;;;;;3.35;2.00;;;17.00;53.20;;;;;;5048181;28;20025;-69
2021/05/23 04:12:51;;;;;;;4.68;1.67;;;16.90;53.10;;;;;;5023060;28;20022;-69
2021/05/23 04:15:10;;;;;;;2.67;1.27;;;16.90;53.10;;;;;;5016347;28;20431;-69
2021/05/23 04:17:36;;;;;;;1.40;0.93;;;16.90;53.40;;;;;;5014899;28;20080;-68
2021/05/23 04:20:08;;;;;;;3.80;1.30;;;16.80;53.40;;;;;;5013346;28;20086;-69
2021/05/23 04:22:35;;;;;;;4.30;1.35;;;16.80;53.40;;;;;;5014767;28;20048;-69
2021/05/23 04:25:02;;;;;;;1.75;1.33;;;16.80;54.30;;;;;;5013387;28;20033;-69
2021/05/23 04:27:28;;;;;;;2.83;1.77;;;16.80;53.90;;;;;;5014588;28;20029;-69
2021/05/23 04:29:54;;;;;;;8.48;2.30;;;16.70;54.00;;;;;;5014387;28;20026;-68
2021/05/23 04:32:20;;;;;;;4.68;1.75;;;16.70;54.20;;;;;;5014481;28;20045;-69
2021/05/23 04:34:45;;;;;;;2.40;1.48;;;16.70;54.30;;;;;;5014863;28;20076;-69
2021/05/23 04:37:15;;;;;;;1.80;1.10;;;16.60;54.40;;;;;;5032847;28;20033;-69
2021/05/23 04:39:41;;;;;;;4.22;2.22;;;16.60;54.60;;;;;;5033380;28;20026;-69
2021/05/23 04:42:06;;;;;;;3.58;1.95;;;16.60;54.80;;;;;;5033991;28;20036;-69
2021/05/23 04:44:32;;;;;;;6.18;2.03;;;16.60;55.20;;;;;;5034081;28;20022;-69
2021/05/23 04:46:58;;;;;;;4.47;1.77;;;16.50;55.30;;;;;;5031626;28;20413;-69
2021/05/23 04:49:24;;;;;;;3.85;2.80;;;16.50;55.60;;;;;;5047951;28;20025;-69
2021/05/23 04:51:49;;;;;;;9.45;5.43;;;16.50;55.70;;;;;;5032475;28;20380;-69
2021/05/23 04:54:15;;;;;;;5.32;4.00;;;16.50;55.70;;;;;;5013168;28;20476;-69
2021/05/23 04:56:41;;;;;;;16.98;10.60;;;16.50;56.10;;;;;;5014122;28;20026;-69
2021/05/23 04:59:07;;;;;;;5.65;2.85;;;16.50;56.30;;;;;;5014198;28;20029;-69
2021/05/23 05:01:32;;;;;;;2.40;1.30;;;16.40;56.50;;;;;;5014021;28;20383;-69
2021/05/23 05:03:58;;;;;;;5.43;2.33;;;16.40;56.90;;;;;;5014325;28;20078;-69
2021/05/23 05:06:24;;;;;;;1.85;1.20;;;16.30;57.00;;;;;;5013936;28;20159;-69
2021/05/23 05:08:51;;;;;;;6.47;2.05;;;16.30;57.40;;;;;;5033139;28;20033;-69
2021/05/23 05:11:17;;;;;;;2.70;1.85;;;16.20;57.50;;;;;;5053543;28;20103;-69
2021/05/23 05:13:43;;;;;;;2.78;1.77;;;16.10;57.40;;;;;;5053493;28;20120;-69
2021/05/23 05:16:08;;;;;;;3.78;2.17;;;16.20;57.60;;;;;;5053405;28;20434;-69
2021/05/23 05:18:35;;;;;;;5.95;1.80;;;16.10;57.70;;;;;;5033629;28;20045;-69
2021/05/23 05:21:03;;;;;;;4.10;1.27;;;16.10;57.70;;;;;;5013708;28;20026;-69
2021/05/23 05:23:29;;;;;;;3.45;1.20;;;16.10;57.70;;;;;;5013695;28;20032;-69
2021/05/23 05:25:54;;;;;;;1.60;1.00;;;16.00;58.00;;;;;;5013624;28;20018;-69
2021/05/23 05:28:20;;;;;;;4.80;1.45;;;16.00;57.90;;;;;;5013427;28;20443;-69
2021/05/23 05:30:46;;;;;;;2.95;1.30;;;16.00;58.00;;;;;;5013554;28;20116;-69
2021/05/23 05:33:12;;;;;;;3.35;1.40;;;16.00;57.90;;;;;;5016251;28;20037;-69
2021/05/23 05:35:38;;;;;;;6.00;2.60;;;16.00;58.20;;;;;;5013287;28;20026;-69
2021/05/23 05:38:03;;;;;;;2.78;1.30;;;16.10;58.50;;;;;;5012102;28;20030;-69
2021/05/23 05:40:29;;;;;;;2.53;1.17;;;16.00;58.50;;;;;;5012959;28;20061;-69
2021/05/23 05:42:55;;;;;;;1.92;1.10;;;16.00;58.30;;;;;;5013196;28;20108;-69
2021/05/23 05:45:21;;;;;;;3.30;0.98;;;16.00;58.50;;;;;;5013971;28;20022;-69
2021/05/23 05:47:46;;;;;;;2.28;1.10;;;16.10;58.50;;;;;;5013219;28;20494;-69
2021/05/23 05:50:12;;;;;;;3.80;1.92;;;16.10;58.70;;;;;;5013230;28;20021;-69
2021/05/23 05:52:38;;;;;;;2.47;1.38;;;16.20;58.50;;;;;;5013015;28;20045;-69
2021/05/23 05:55:05;;;;;;;2.17;1.33;;;16.20;58.60;;;;;;5013323;28;20052;-69
2021/05/23 05:57:30;;;;;;;7.80;1.20;;;16.20;58.80;;;;;;5013125;28;20364;-69
2021/05/23 05:59:56;;;;;;;2.40;1.27;;;16.30;58.60;;;;;;5013286;28;20080;-69
2021/05/23 06:02:22;;;;;;;4.43;1.35;;;16.30;58.50;;;;;;5013201;28;20030;-69
2021/05/23 06:04:50;;;;;;;2.28;1.20;;;16.30;58.40;;;;;;5029582;28;20029;-69
2021/05/23 06:07:15;;;;;;;1.63;0.80;;;16.40;58.50;;;;;;5039503;28;20013;-69
2021/05/23 06:09:41;;;;;;;3.28;1.05;;;16.40;58.50;;;;;;5054577;28;20032;-69
2021/05/23 06:12:08;;;;;;;2.20;1.02;;;16.40;58.40;;;;;;5059320;28;20052;-69
2021/05/23 06:14:34;;;;;;;2.97;1.30;;;16.50;58.40;;;;;;5059336;28;20544;-69
2021/05/23 06:16:59;;;;;;;3.60;1.38;;;16.50;58.30;;;;;;5059353;28;20471;-69
2021/05/23 06:19:25;;;;;;;6.75;1.27;;;16.60;58.50;;;;;;5025253;28;20037;-69
2021/05/23 06:21:51;;;;;;;1.67;1.13;;;16.60;58.50;;;;;;5019506;28;20040;-69
2021/05/23 06:24:17;;;;;;;4.55;1.98;;;16.70;58.60;;;;;;5019486;28;20022;-69
2021/05/23 06:26:43;;;;;;;2.95;1.42;;;16.70;58.50;;;;;;5018297;28;20045;-69
2021/05/23 06:29:09;;;;;;;3.63;1.10;;;16.70;58.30;;;;;;5019414;28;20109;-69
2021/05/23 06:31:35;;;;;;;2.92;1.00;;;16.70;58.40;;;;;;5019492;28;20388;-69
2021/05/23 06:34:00;;;;;;;2.13;1.40;;;16.80;58.20;;;;;;5019750;28;20042;-69
2021/05/23 06:36:26;;;;;;;2.38;1.10;;;16.80;58.00;;;;;;5019455;28;20033;-69
2021/05/23 06:38:52;;;;;;;3.90;1.27;;;16.80;58.10;;;;;;5019237;28;20087;-69
2021/05/23 06:41:18;;;;;;;4.70;1.23;;;16.80;58.30;;;;;;5019249;28;20050;-70
2021/05/23 06:43:44;;;;;;;4.43;1.40;;;16.80;58.00;;;;;;5019406;28;20022;-69
2021/05/23 06:46:10;;;;;;;7.47;1.80;;;16.80;58.00;;;;;;5019397;28;20102;-69
2021/05/23 06:48:36;;;;;;;0.90;0.80;;;16.80;58.00;;;;;;5017437;28;20022;-69
2021/05/23 06:51:01;;;;;;;1.90;0.90;;;16.80;57.90;;;;;;5019275;28;20026;-69
2021/05/23 06:53:27;;;;;;;3.50;0.80;;;16.80;57.80;;;;;;5019041;28;20045;-69
2021/05/23 06:55:53;;;;;;;2.38;1.08;;;16.80;57.80;;;;;;5019265;28;20080;-69
2021/05/23 06:58:19;;;;;;;2.13;1.10;;;16.80;57.70;;;;;;5019360;28;20398;-69
2021/05/23 07:00:44;;;;;;;3.28;1.00;;;16.70;57.70;;;;;;5019111;28;20033;-69
2021/05/23 07:03:11;;;;;;;1.65;0.77;;;16.70;57.70;;;;;;5019496;28;20845;-69
2021/05/23 07:05:37;;;;;;;2.38;1.20;;;16.80;57.90;;;;;;5019218;28;20073;-69
2021/05/23 07:08:05;;;;;;;3.28;1.17;;;16.80;58.10;;;;;;5026349;28;20017;-69
2021/05/23 07:10:31;;;;;;;2.33;1.00;;;16.80;58.20;;;;;;5058884;28;20448;-69
2021/05/23 07:12:57;;;;;;;2.17;1.00;;;16.80;58.50;;;;;;5058852;28;20104;-69
2021/05/23 07:15:23;;;;;;;1.92;0.95;;;16.80;58.40;;;;;;5058724;28;20028;-69
2021/05/23 07:17:52;;;;;;;3.88;1.17;;;16.90;58.70;;;;;;5047432;28;20475;-69
2021/05/23 07:20:17;;;;;;;3.17;1.05;;;16.90;58.80;;;;;;5014515;28;20025;-69
2021/05/23 07:22:43;;;;;;;1.85;1.10;;;16.90;58.80;;;;;;5015883;28;20498;-69
2021/05/23 07:25:13;;;;;;;2.17;1.10;;;16.90;59.10;;;;;;5015891;28;20014;-69
2021/05/23 07:27:40;;;;;;;3.85;1.15;;;16.90;59.10;;;;;;5015830;28;20061;-69
2021/05/23 07:30:06;;;;;;;1.58;1.00;;;16.90;59.20;;;;;;5015645;28;20106;-69
2021/05/23 07:32:32;;;;;;;1.75;1.20;;;16.90;59.50;;;;;;5037796;28;20439;-69
2021/05/23 07:34:58;;;;;;;1.35;1.00;;;17.00;60.00;;;;;;5030039;28;20437;-69
2021/05/23 07:37:23;;;;;;;2.45;1.25;;;17.10;60.00;;;;;;5033353;28;20033;-69
2021/05/23 07:39:49;;;;;;;1.75;1.20;;;17.10;59.70;;;;;;5034165;28;20034;-69
2021/05/23 07:42:15;;;;;;;2.20;1.00;;;17.20;59.20;;;;;;5035003;28;20038;-69
2021/05/23 07:44:41;;;;;;;1.30;0.90;;;17.20;58.70;;;;;;5034001;28;20034;-69
2021/05/23 07:47:06;;;;;;;2.50;0.90;;;17.20;58.60;;;;;;5029079;28;20025;-69
2021/05/23 07:49:40;;;;;;;0.95;0.73;;;17.20;58.50;;;;;;5015648;28;20026;-69
2021/05/23 07:52:10;;;;;;;3.55;1.10;;;17.10;58.30;;;;;;5015060;28;20067;-69
2021/05/23 07:54:37;;;;;;;2.80;1.00;;;17.10;58.80;;;;;;5015263;28;20030;-70
2021/05/23 07:57:03;;;;;;;3.83;1.10;;;17.00;58.60;;;;;;5015242;28;20065;-70
2021/05/23 07:59:29;;;;;;;1.95;1.05;;;16.90;58.70;;;;;;5015116;28;20476;-70
2021/05/23 08:01:55;;;;;;;3.17;1.25;;;16.80;59.60;;;;;;5015080;28;20034;-70
2021/05/23 08:04:21;;;;;;;1.73;0.82;;;16.70;59.70;;;;;;5024013;28;20080;-71
2021/05/23 08:06:47;;;;;;;3.13;1.00;;;16.70;59.80;;;;;;5034042;28;20479;-71
2021/05/23 08:09:13;;;;;;;3.55;1.20;;;16.60;59.80;;;;;;5045827;28;20036;-71
2021/05/23 08:11:40;;;;;;;2.58;0.88;;;16.50;59.90;;;;;;5054721;28;20037;-71
2021/05/23 08:14:07;;;;;;;2.22;0.60;;;16.50;59.50;;;;;;5054607;28;20029;-71
2021/05/23 08:16:33;;;;;;;1.58;0.93;;;16.50;59.40;;;;;;5023190;28;20446;-72
2021/05/23 08:18:59;;;;;;;0.90;0.60;;;16.40;58.70;;;;;;5014877;28;20503;-72
2021/05/23 08:21:25;;;;;;;1.08;0.70;;;16.40;59.10;;;;;;5014783;28;20025;-73
2021/05/23 08:23:51;;;;;;;6.20;0.98;;;16.40;59.40;;;;;;5014646;28;20101;-72
2021/05/23 08:26:16;;;;;;;1.58;0.68;;;16.40;60.20;;;;;;5014717;28;20065;-73
2021/05/23 08:28:42;;;;;;;1.63;0.93;;;16.40;61.90;;;;;;5014553;28;20048;-74
2021/05/23 08:31:08;;;;;;;0.80;0.63;;;16.40;62.70;;;;;;5025533;28;20026;-75
2021/05/23 08:33:34;;;;;;;2.28;0.95;;;16.40;63.00;;;;;;5027719;28;20042;-75
2021/05/23 08:36:00;;;;;;;3.88;1.58;;;16.50;63.40;;;;;;5014371;28;20495;-74
2021/05/23 08:38:27;;;;;;;24.23;9.25;;;16.50;62.40;;;;;;5014374;28;20026;-75
2021/05/23 08:40:52;;;;;;;5.47;2.15;;;16.50;62.50;;;;;;5029384;28;20022;-74
2021/05/23 08:43:19;;;;;;;2.22;0.90;;;16.50;62.70;;;;;;5014208;28;20384;-75
2021/05/23 08:45:48;;;;;;;1.30;0.80;;;16.50;62.60;;;;;;5014322;28;20022;-74
2021/05/23 08:48:17;;;;;;;3.03;1.00;;;16.50;62.10;;;;;;5014176;28;20426;-73
2021/05/23 08:50:43;;;;;;;2.17;0.95;;;16.50;62.30;;;;;;5014146;28;20393;-73
2021/05/23 08:53:09;;;;;;;1.40;0.70;;;16.60;63.10;;;;;;5014012;28;20050;-72
2021/05/23 08:55:38;;;;;;;2.35;0.90;;;16.60;63.20;;;;;;5026127;28;20111;-72
2021/05/23 08:58:04;;;;;;;2.28;1.30;;;16.60;63.60;;;;;;5033821;28;20033;-70
2021/05/23 09:00:30;;;;;;;2.45;1.10;;;16.70;63.50;;;;;;5028672;28;20109;-69
2021/05/23 09:02:58;;;;;;;2.70;0.90;;;16.70;64.50;;;;;;5029425;28;20029;-69
2021/05/23 09:05:30;;;;;;;5.53;1.33;;;16.70;64.70;;;;;;5013969;28;20053;-69
2021/05/23 09:07:56;;;;;;;1.42;0.80;;;16.70;64.50;;;;;;5013968;28;20025;-69
2021/05/23 09:10:24;;;;;;;4.35;1.10;;;16.80;64.10;;;;;;5013929;28;20141;-69
2021/05/23 09:12:50;;;;;;;4.25;1.38;;;16.80;63.90;;;;;;5024541;28;20032;-69
2021/05/23 09:15:16;;;;;;;2.00;1.05;;;16.80;63.40;;;;;;5033411;28;20036;-68
2021/05/23 09:17:42;;;;;;;2.97;1.25;;;16.80;64.10;;;;;;5033428;28;20439;-68
2021/05/23 09:20:18;;;;;;;2.60;0.90;;;16.70;64.30;;;;;;5031748;28;20036;-68
2021/05/23 09:22:50;;;;;;;1.58;0.75;;;16.60;63.20;;;;;;5033445;28;20030;-69
2021/05/23 09:25:28;;;;;;;1.05;0.60;;;16.50;62.60;;;;;;5032132;28;20104;-69
2021/05/23 09:27:54;;;;;;;1.42;0.95;;;16.40;62.60;;;;;;5032160;28;20386;-68
2021/05/23 09:30:23;;;;;;;1.23;0.60;;;16.40;63.20;;;;;;5033259;28;20033;-69
2021/05/23 09:32:52;;;;;;;1.83;0.73;;;16.30;62.90;;;;;;5032030;28;20029;-69
2021/05/23 09:35:18;;;;;;;1.25;0.50;;;16.30;62.50;;;;;;5043653;28;20518;-69
2021/05/23 09:37:44;;;;;;;0.80;0.32;;;16.20;61.60;;;;;;5022279;28;20112;-69
2021/05/23 09:40:17;;;;;;;0.85;0.50;;;16.20;62.50;;;;;;5032597;28;20029;-69
2021/05/23 09:42:47;;;;;;;0.60;0.47;;;16.20;63.50;;;;;;5032846;28;20132;-68
2021/05/23 09:45:14;;;;;;;1.02;0.60;;;16.20;62.50;;;;;;5019321;28;20380;-69
2021/05/23 09:47:55;;;;;;;1.90;0.77;;;16.20;61.30;;;;;;5013284;28;20022;-68
2021/05/23 09:50:41;;;;;;;9.10;0.50;;;16.20;61.70;;;;;;5042194;28;20029;-69
2021/05/23 09:53:36;;;;;;;2.90;0.43;;;16.20;60.30;;;;;;5040213;28;20140;-69
2021/05/23 09:56:12;;;;;;;0.65;0.40;;;16.20;61.50;;;;;;5049101;28;20032;-69
2021/05/23 09:58:41;;;;;;;0.95;0.47;;;16.10;61.60;;;;;;5050667;28;20029;-69
2021/05/23 10:01:22;;;;;;;0.55;0.35;;;16.10;61.50;;;;;;5033742;28;20043;-68
2021/05/23 10:03:48;;;;;;;3.25;0.47;;;16.10;62.00;;;;;;5010635;28;20136;-69
2021/05/23 10:06:24;;;;;;;1.77;0.60;;;16.10;63.60;;;;;;5014056;28;20475;-69
2021/05/23 10:08:50;;;;;;;1.13;0.60;;;16.10;63.60;;;;;;5030475;28;20510;-69
2021/05/23 10:11:16;;;;;;;0.80;0.40;;;16.20;63.50;;;;;;5018494;28;20057;-69
2021/05/23 10:13:42;;;;;;;0.30;0.30;;;16.20;63.10;;;;;;5013667;28;20041;-69
2021/05/23 10:16:08;;;;;;;3.20;0.38;;;16.30;63.50;;;;;;5028885;28;20044;-69
2021/05/23 10:18:33;;;;;;;0.55;0.30;;;16.30;64.00;;;;;;5030448;28;20542;-69
2021/05/23 10:20:59;;;;;;;0.50;0.30;;;16.40;62.70;;;;;;5028459;28;20072;-69
2021/05/23 10:23:38;;;;;;;0.95;0.32;;;16.50;63.00;;;;;;5030195;28;20025;-69
2021/05/23 10:26:11;;;;;;;1.20;0.80;;;16.50;62.10;;;;;;5026768;28;20133;-69
2021/05/23 10:28:42;;;;;;;0.75;0.40;;;16.60;61.20;;;;;;5010716;28;20026;-69
2021/05/23 10:31:09;;;;;;;1.40;0.50;;;16.70;61.70;;;;;;5011191;28;20030;-69
2021/05/23 10:33:35;;;;;;;3.63;0.63;;;16.70;60.90;;;;;;5029541;28;20068;-69
2021/05/23 10:36:00;;;;;;;0.52;0.40;;;16.70;59.60;;;;;;5032348;28;20033;-69
2021/05/23 10:38:27;;;;;;;0.65;0.30;;;16.80;60.40;;;;;;5044928;28;20025;-69
2021/05/23 10:41:07;;;;;;;1.02;0.40;;;16.90;60.80;;;;;;5052215;28;20048;-69
2021/05/23 10:43:36;;;;;;;0.82;0.50;;;17.00;61.90;;;;;;5028948;28;20014;-69
2021/05/23 10:46:13;;;;;;;6.30;0.57;;;17.10;61.30;;;;;;5012630;28;20029;-69
2021/05/23 10:48:50;;;;;;;0.93;0.40;;;17.20;60.40;;;;;;5017782;28;20057;-69
2021/05/23 10:51:17;;;;;;;2.17;1.73;;;17.30;59.50;;;;;;5032411;28;20483;-69
2021/05/23 10:53:44;;;;;;;0.40;0.40;;;17.40;59.70;;;;;;5033560;28;20029;-69
2021/05/23 10:56:25;;;;;;;0.63;0.35;;;17.50;58.20;;;;;;5025652;28;20509;-69
2021/05/23 10:58:55;;;;;;;0.52;0.40;;;17.60;58.50;;;;;;5045607;28;20044;-69
2021/05/23 11:01:37;;;;;;;0.25;0.25;;;17.70;59.50;;;;;;5036704;28;20026;-68
2021/05/23 11:04:13;;;;;;;0.30;0.30;;;17.90;59.10;;;;;;5027497;28;20372;-69
2021/05/23 11:06:41;;;;;;;2.78;0.40;;;18.10;59.20;;;;;;5015354;28;20542;-69
2021/05/23 11:09:12;;;;;;;0.73;0.40;;;18.20;58.80;;;;;;5020200;28;20029;-69
2021/05/23 11:11:38;;;;;;;1.35;0.38;;;18.30;58.20;;;;;;5032975;28;20577;-69
2021/05/23 11:14:22;;;;;;;0.50;0.20;;;18.30;56.90;;;;;;5024915;28;20079;-69
2021/05/23 11:16:55;;;;;;;1.13;0.82;;;18.20;56.20;;;;;;5035766;28;20021;-69
2021/05/23 11:19:22;;;;;;;0.65;0.52;;;18.20;56.60;;;;;;5018376;28;20041;-69
2021/05/23 11:21:51;;;;;;;0.38;0.35;;;18.30;59.10;;;;;;5023365;28;20386;-69
2021/05/23 11:24:17;;;;;;;0.63;0.50;;;18.50;61.00;;;;;;5031187;28;20021;-69
2021/05/23 11:26:44;;;;;;;1.33;0.40;;;18.80;58.80;;;;;;5030736;28;20163;-69
2021/05/23 11:29:10;;;;;;;0.50;0.50;;;19.10;58.30;;;;;;5026885;28;20021;-69
2021/05/23 11:31:41;;;;;;;1.77;0.30;;;19.40;58.00;;;;;;5030912;28;20033;-68
2021/05/23 11:34:07;;;;;;;0.20;0.20;;;19.60;55.20;;;;;;5017543;28;20076;-69
2021/05/23 11:36:36;;;;;;;0.77;0.45;;;19.80;55.60;;;;;;5015478;28;20056;-69
2021/05/23 11:39:05;;;;;;;1.00;0.50;;;19.90;55.40;;;;;;5015541;28;20483;-69
2021/05/23 11:41:34;;;;;;;0.50;0.38;;;20.10;54.70;;;;;;5013947;28;20026;-69
2021/05/23 11:44:01;;;;;;;0.35;0.30;;;20.20;53.90;;;;;;5017352;28;20104;-69
2021/05/23 11:46:28;;;;;;;0.25;0.25;;;20.30;53.20;;;;;;5028431;28;20021;-67
2021/05/23 11:48:56;;;;;;;0.65;0.43;;;20.30;52.10;;;;;;5033667;28;20030;-67
2021/05/23 11:51:30;;;;;;;0.90;0.45;;;20.30;52.90;;;;;;5013849;28;20129;-67
2021/05/23 11:53:59;;;;;;;0.50;0.32;;;20.20;52.70;;;;;;5020917;28;20495;-67
2021/05/23 11:56:27;;;;;;;0.43;0.30;;;20.30;53.80;;;;;;5015560;28;20034;-67
2021/05/23 11:58:58;;;;;;;0.90;0.40;;;20.40;55.50;;;;;;5013862;28;20392;-67
2021/05/23 12:01:54;;;;;;;0.60;0.50;;;20.50;54.40;;;;;;5019555;28;20037;-68
2021/05/23 12:04:20;;;;;;;0.43;0.32;;;20.50;51.40;;;;;;5040148;28;20562;-67
2021/05/23 12:06:51;;;;;;;1.30;0.45;;;20.50;52.10;;;;;;5068036;28;20029;-68
2021/05/23 12:09:36;;;;;;;0.65;0.35;;;20.40;51.50;;;;;;5037113;28;20025;-70
2021/05/23 12:12:05;;;;;;;0.55;0.40;;;20.20;50.60;;;;;;5052580;28;20339;-67
2021/05/23 12:14:37;;;;;;;1.23;0.50;;;20.10;51.10;;;;;;5035578;28;20418;-68
2021/05/23 12:17:11;;;;;;;0.38;0.38;;;19.90;51.40;;;;;;5041018;28;20021;-67
2021/05/23 12:19:49;;;;;;;0.85;0.50;;;19.70;52.70;;;;;;5052404;28;20104;-67
2021/05/23 12:22:25;;;;;;;0.65;0.50;;;19.60;53.20;;;;;;5051664;28;20033;-67
2021/05/23 12:24:57;;;;;;;1.15;0.50;;;19.50;52.60;;;;;;5032213;28;20036;-68
2021/05/23 12:27:41;;;;;;;4.93;0.50;;;19.50;53.80;;;;;;5032317;28;20044;-67
2021/05/23 12:30:10;;;;;;;;;;;19.60;54.90;;;;;;5036191;28;20053;-68
2021/05/23 12:32:58;;;;;;;0.40;0.35;;;19.90;55.00;;;;;;5048044;28;19908;-67
2021/05/23 12:35:30;;;;;;;1.60;0.40;;;20.20;54.90;;;;;;5046929;28;20040;-67
2021/05/23 12:38:17;;;;;;;0.90;0.57;;;20.50;54.50;;;;;;5040314;28;20031;-67
2021/05/23 12:40:45;;;;;;;0.77;0.40;;;20.70;51.60;;;;;;5022254;28;20049;-67
2021/05/23 12:43:19;;;;;;;2.47;0.63;;;20.80;52.10;;;;;;5035162;28;20026;-67
2021/05/23 12:46:00;;;;;;;1.00;0.70;;;21.00;50.70;;;;;;5054054;28;20078;-70
2021/05/23 12:48:32;;;;;;;0.60;0.50;;;21.10;48.50;;;;;;5044905;28;20497;-67
2021/05/23 12:50:59;;;;;;;1.33;0.52;;;21.10;48.60;;;;;;5023116;28;20505;-67